sensor_id;sensor_type;location;lat;lon;timestamp;pressure;altitude;pressure_sealevel;temperature;humidity
40460;BME280;26164;51.138;16.952;2024-02-14T05:49:05;76331.41;;;-146.39;35.98
40460;BME280;26164;51.138;16.952;2024-02-14T05:51:59;76343.63;;;-146.39;36.05
40460;BME280;26164;51.138;16.952;2024-02-14T05:54:45;76523.28;;;-146.39;37.21
40460;BME280;26164;51.138;16.952;2024-02-14T05:57:27;76372.22;;;-146.39;36.48
40460;BME280;26164;51.138;16.952;2024-02-14T06:00:14;76598.81;;;-146.39;38.22
40460;BME280;26164;51.138;16.952;2024-02-14T06:03:00;76462.03;;;-146.39;37.88
40460;BME280;26164;51.138;16.952;2024-02-14T06:05:42;76357.94;;;-146.39;36.45
40460;BME280;26164;51.138;16.952;2024-02-14T06:08:25;76457.97;;;-146.39;37.03
40460;BME280;26164;51.138;16.952;2024-02-14T06:11:07;76462.03;;;-146.39;37.57
40460;BME280;26164;51.138;16.952;2024-02-14T06:24:24;76474.28;;;-146.39;37.52
40460;BME280;26164;51.138;16.952;2024-02-14T06:27:25;76543.69;;;-146.39;38.65
40460;BME280;26164;51.138;16.952;2024-02-14T06:30:13;76580.44;;;-146.39;38.60
40460;BME280;26164;51.138;16.952;2024-02-14T06:33:00;76486.53;;;-146.39;38.09
40460;BME280;26164;51.138;16.952;2024-02-14T06:35:47;76368.13;;;-146.39;36.67
40460;BME280;26164;51.138;16.952;2024-02-14T06:38:32;76282.41;;;-146.39;36.10
40460;BME280;26164;51.138;16.952;2024-02-14T06:58:07;76288.53;;;-146.39;35.80
40460;BME280;26164;51.138;16.952;2024-02-14T14:10:39;75329.19;;;-146.39;30.93
40460;BME280;26164;51.138;16.952;2024-02-14T14:22:38;75233.28;;;-146.39;30.16
40460;BME280;26164;51.138;16.952;2024-02-14T14:26:07;75225.13;;;-146.39;30.42
40460;BME280;26164;51.138;16.952;2024-02-14T15:32:26;75429.22;;;-146.39;32.61
40460;BME280;26164;51.138;16.952;2024-02-14T17:31:34;75633.31;;;-146.39;37.61
40460;BME280;26164;51.138;16.952;2024-02-14T17:34:26;75580.25;;;-146.39;37.07
40460;BME280;26164;51.138;16.952;2024-02-14T17:37:22;75535.34;;;-146.39;36.94
40460;BME280;26164;51.138;16.952;2024-02-14T20:58:15;75572.06;;;-146.39;37.30
40460;BME280;26164;51.138;16.952;2024-02-14T21:01:08;75661.88;;;-146.39;38.25
40460;BME280;26164;51.138;16.952;2024-02-14T21:03:37;75633.31;;;-146.39;37.53
40460;BME280;26164;51.138;16.952;2024-02-14T21:06:18;75696.56;;;-146.39;38.49
40460;BME280;26164;51.138;16.952;2024-02-14T21:09:20;75637.38;;;-146.39;38.08
40460;BME280;26164;51.138;16.952;2024-02-14T21:12:13;75602.69;;;-146.39;37.84
40460;BME280;26164;51.138;16.952;2024-02-14T21:18:25;75592.47;;;-146.39;37.63
40460;BME280;26164;51.138;16.952;2024-02-14T21:21:16;75653.72;;;-146.39;37.98
40460;BME280;26164;51.138;16.952;2024-02-14T21:24:01;75633.31;;;-146.39;38.04
40460;BME280;26164;51.138;16.952;2024-02-14T21:26:58;75616.97;;;-146.39;38.16
40460;BME280;26164;51.138;16.952;2024-02-14T21:29:53;75698.63;;;-146.39;38.66
40460;BME280;26164;51.138;16.952;2024-02-14T21:32:35;75702.69;;;-146.39;38.63
40460;BME280;26164;51.138;16.952;2024-02-14T21:35:17;75723.09;;;-146.39;39.27
40460;BME280;26164;51.138;16.952;2024-02-14T21:38:00;75753.72;;;-146.39;39.83
40460;BME280;26164;51.138;16.952;2024-02-14T21:40:45;75568.00;;;-146.39;38.02
40460;BME280;26164;51.138;16.952;2024-02-14T21:43:28;75616.97;;;-146.39;38.10
40460;BME280;26164;51.138;16.952;2024-02-14T21:46:09;75596.56;;;-146.39;38.19
40460;BME280;26164;51.138;16.952;2024-02-14T21:48:39;75657.78;;;-146.39;38.56
40460;BME280;26164;51.138;16.952;2024-02-14T21:51:08;75637.38;;;-146.39;38.73
40460;BME280;26164;51.138;16.952;2024-02-14T21:53:55;75482.28;;;-146.39;37.07
40460;BME280;26164;51.138;16.952;2024-02-14T21:56:39;75584.31;;;-146.39;37.76
40460;BME280;26164;51.138;16.952;2024-02-14T21:59:23;75533.28;;;-146.39;37.35
40460;BME280;26164;51.138;16.952;2024-02-14T22:01:56;75563.91;;;-146.39;37.73
40460;BME280;26164;51.138;16.952;2024-02-14T22:04:40;75547.59;;;-146.39;37.17
40460;BME280;26164;51.138;16.952;2024-02-14T22:07:39;75535.34;;;-146.39;37.55
40460;BME280;26164;51.138;16.952;2024-02-14T22:10:14;75545.53;;;-146.39;37.43
40460;BME280;26164;51.138;16.952;2024-02-14T22:12:52;75429.22;;;-146.39;36.36
40460;BME280;26164;51.138;16.952;2024-02-14T22:15:24;75572.06;;;-146.39;37.20
40460;BME280;26164;51.138;16.952;2024-02-14T22:17:54;75519.00;;;-146.39;37.14
40460;BME280;26164;51.138;16.952;2024-02-14T22:20:28;75533.28;;;-146.39;37.07
40460;BME280;26164;51.138;16.952;2024-02-14T22:22:58;75506.75;;;-146.39;37.00
40460;BME280;26164;51.138;16.952;2024-02-14T22:25:27;75539.41;;;-146.39;37.00
40460;BME280;26164;51.138;16.952;2024-02-14T22:27:55;75531.25;;;-146.39;37.13
40460;BME280;26164;51.138;16.952;2024-02-14T22:55:42;75423.09;;;-146.39;36.45
40460;BME280;26164;51.138;16.952;2024-02-14T22:58:59;75396.56;;;-146.39;36.18
40460;BME280;26164;51.138;16.952;2024-02-14T23:06:12;75384.31;;;-146.39;35.98
40460;BME280;26164;51.138;16.952;2024-02-14T23:09:02;75367.97;;;-146.39;35.77
40460;BME280;26164;51.138;16.952;2024-02-14T23:11:59;75355.72;;;-146.39;35.42
40460;BME280;26164;51.138;16.952;2024-02-14T23:14:34;75396.56;;;-146.39;35.66
40460;BME280;26164;51.138;16.952;2024-02-14T23:17:00;75355.72;;;-146.39;35.56
40460;BME280;26164;51.138;16.952;2024-02-14T23:19:34;75351.66;;;-146.39;35.38
40460;BME280;26164;51.138;16.952;2024-02-14T23:22:00;75400.63;;;-146.39;35.69
40460;BME280;26164;51.138;16.952;2024-02-14T23:24:36;75347.56;;;-146.39;35.42
40460;BME280;26164;51.138;16.952;2024-02-14T23:27:02;75384.31;;;-146.39;35.63
40460;BME280;26164;51.138;16.952;2024-02-14T23:29:30;75396.56;;;-146.39;35.87
40460;BME280;26164;51.138;16.952;2024-02-14T23:31:56;75378.19;;;-146.39;35.59
40460;BME280;26164;51.138;16.952;2024-02-14T23:34:26;75386.34;;;-146.39;35.83
40460;BME280;26164;51.138;16.952;2024-02-14T23:37:36;75359.81;;;-146.39;35.58
40460;BME280;26164;51.138;16.952;2024-02-14T23:41:07;75319.00;;;-146.39;35.06
40460;BME280;26164;51.138;16.952;2024-02-14T23:45:07;75370.03;;;-146.39;35.72
40460;BME280;26164;51.138;16.952;2024-02-14T23:52:10;75376.13;;;-146.39;35.60
40460;BME280;26164;51.138;16.952;2024-02-14T23:54:42;75339.41;;;-146.39;35.15
40460;BME280;26164;51.138;16.952;2024-02-14T23:57:08;75347.56;;;-146.39;35.40
40460;BME280;26164;51.138;16.952;2024-02-14T23:59:41;75355.72;;;-146.39;35.62
